sensor_id;sensor_type;location;lat;lon;timestamp;pressure;altitude;pressure_sealevel;temperature;humidity
48606;BME280;8482;54.396;18.590;2024-01-10T15:11:46;102823.72;;;1.32;92.05
48606;BME280;8482;54.396;18.590;2024-01-10T15:14:12;102821.09;;;1.31;93.95
48606;BME280;8482;54.396;18.590;2024-01-10T15:16:38;102814.97;;;1.32;95.59
48606;BME280;8482;54.396;18.590;2024-01-10T15:19:03;102813.22;;;1.35;96.17
48606;BME280;8482;54.396;18.590;2024-01-10T15:21:30;102808.88;;;1.36;96.37
48606;BME280;8482;54.396;18.590;2024-01-10T15:23:56;102817.53;;;1.40;96.14
48606;BME280;8482;54.396;18.590;2024-01-10T15:26:22;102817.53;;;1.40;95.99
48606;BME280;8482;54.396;18.590;2024-01-10T15:28:49;102820.09;;;1.47;95.42
48606;BME280;8482;54.396;18.590;2024-01-10T15:31:17;102813.13;;;1.48;95.09
48606;BME280;8482;54.396;18.590;2024-01-10T15:33:43;102807.88;;;1.51;94.82
48606;BME280;8482;54.396;18.590;2024-01-10T15:36:09;102800.03;;;1.51;94.89
48606;BME280;8482;54.396;18.590;2024-01-10T15:38:39;102800.88;;;1.53;94.39
48606;BME280;8482;54.396;18.590;2024-01-10T15:41:07;102802.59;;;1.56;94.54
48606;BME280;8482;54.396;18.590;2024-01-10T15:43:35;102795.63;;;1.55;94.21
48606;BME280;8482;54.396;18.590;2024-01-10T15:46:01;102793.91;;;1.55;93.91
48606;BME280;8482;54.396;18.590;2024-01-10T15:48:27;102785.19;;;1.53;93.93
48606;BME280;8482;54.396;18.590;2024-01-10T15:50:56;102781.69;;;1.57;93.93
48606;BME280;8482;54.396;18.590;2024-01-10T15:53:24;102767.72;;;1.58;93.92
48606;BME280;8482;54.396;18.590;2024-01-10T15:55:50;102764.19;;;1.59;93.58
48606;BME280;8482;54.396;18.590;2024-01-10T15:58:18;102761.59;;;1.61;93.23
48606;BME280;8482;54.396;18.590;2024-01-10T16:00:44;102766.81;;;1.61;92.95
48606;BME280;8482;54.396;18.590;2024-01-10T16:03:10;102767.66;;;1.61;93.17
48606;BME280;8482;54.396;18.590;2024-01-10T16:05:36;102764.19;;;1.61;92.97
48606;BME280;8482;54.396;18.590;2024-01-10T16:08:03;102766.78;;;1.62;92.60
48606;BME280;8482;54.396;18.590;2024-01-10T16:10:28;102765.94;;;1.62;92.76
48606;BME280;8482;54.396;18.590;2024-01-10T16:12:54;102753.72;;;1.62;92.72
48606;BME280;8482;54.396;18.590;2024-01-10T16:15:20;102750.22;;;1.60;92.29
48606;BME280;8482;54.396;18.590;2024-01-10T16:17:46;102752.84;;;1.62;92.20
48606;BME280;8482;54.396;18.590;2024-01-10T16:20:12;102753.72;;;1.59;92.15
48606;BME280;8482;54.396;18.590;2024-01-10T16:22:37;102765.97;;;1.59;92.69
48606;BME280;8482;54.396;18.590;2024-01-10T16:25:04;102755.53;;;1.57;92.44
48606;BME280;8482;54.396;18.590;2024-01-10T16:27:30;102744.19;;;1.53;92.03
48606;BME280;8482;54.396;18.590;2024-01-10T16:29:56;102748.59;;;1.50;92.49
48606;BME280;8482;54.396;18.590;2024-01-10T16:32:21;102750.34;;;1.49;92.31
48606;BME280;8482;54.396;18.590;2024-01-10T16:34:47;102746.88;;;1.47;92.62
48606;BME280;8482;54.396;18.590;2024-01-10T16:37:16;102740.78;;;1.45;92.81
48606;BME280;8482;54.396;18.590;2024-01-10T16:39:42;102745.09;;;1.48;92.56
48606;BME280;8482;54.396;18.590;2024-01-10T16:42:08;102732.91;;;1.47;92.66
48606;BME280;8482;54.396;18.590;2024-01-10T16:44:34;102738.16;;;1.47;92.32
48606;BME280;8482;54.396;18.590;2024-01-10T16:47:00;102726.00;;;1.40;92.45
48606;BME280;8482;54.396;18.590;2024-01-10T16:49:26;102730.38;;;1.41;92.54
48606;BME280;8482;54.396;18.590;2024-01-10T16:51:52;102728.63;;;1.40;92.66
48606;BME280;8482;54.396;18.590;2024-01-10T16:54:18;102734.75;;;1.38;92.86
48606;BME280;8482;54.396;18.590;2024-01-10T16:56:44;102715.56;;;1.40;92.96
48606;BME280;8482;54.396;18.590;2024-01-10T16:59:10;102713.88;;;1.34;93.12
48606;BME280;8482;54.396;18.590;2024-01-10T17:01:36;102730.34;;;1.39;93.10
48606;BME280;8482;54.396;18.590;2024-01-10T17:04:02;102726.03;;;1.38;92.80
48606;BME280;8482;54.396;18.590;2024-01-10T17:06:27;102728.66;;;1.36;93.26
48606;BME280;8482;54.396;18.590;2024-01-10T17:08:54;102731.28;;;1.35;93.75
48606;BME280;8482;54.396;18.590;2024-01-10T17:11:20;102738.22;;;1.37;93.76
48606;BME280;8482;54.396;18.590;2024-01-10T17:13:46;102726.06;;;1.35;93.73
48606;BME280;8482;54.396;18.590;2024-01-10T17:16:11;102739.13;;;1.35;93.84
48606;BME280;8482;54.396;18.590;2024-01-10T17:18:37;102737.41;;;1.34;93.87
48606;BME280;8482;54.396;18.590;2024-01-10T17:21:05;102719.97;;;1.33;93.67
48606;BME280;8482;54.396;18.590;2024-01-10T17:23:31;102716.50;;;1.31;93.66
48606;BME280;8482;54.396;18.590;2024-01-10T17:25:56;102715.59;;;1.33;93.89
48606;BME280;8482;54.396;18.590;2024-01-10T17:28:22;102723.44;;;1.35;94.07
48606;BME280;8482;54.396;18.590;2024-01-10T17:30:48;102719.06;;;1.35;93.87
48606;BME280;8482;54.396;18.590;2024-01-10T17:33:14;102723.44;;;1.35;93.61
48606;BME280;8482;54.396;18.590;2024-01-10T17:35:41;102718.22;;;1.35;93.86
48606;BME280;8482;54.396;18.590;2024-01-10T17:38:08;102712.97;;;1.35;93.93
48606;BME280;8482;54.396;18.590;2024-01-10T17:40:34;102714.72;;;1.34;93.63
48606;BME280;8482;54.396;18.590;2024-01-10T17:43:00;102705.13;;;1.33;94.00
48606;BME280;8482;54.396;18.590;2024-01-10T17:45:25;102709.47;;;1.34;93.98
48606;BME280;8482;54.396;18.590;2024-01-10T17:47:51;102713.88;;;1.34;93.92
48606;BME280;8482;54.396;18.590;2024-01-10T17:50:18;102704.31;;;1.31;93.94
48606;BME280;8482;54.396;18.590;2024-01-10T17:52:44;102696.44;;;1.30;93.58
48606;BME280;8482;54.396;18.590;2024-01-10T17:55:09;102702.56;;;1.29;94.05
48606;BME280;8482;54.396;18.590;2024-01-10T17:57:35;102693.84;;;1.31;94.01
48606;BME280;8482;54.396;18.590;2024-01-10T18:00:01;102691.22;;;1.31;93.73
48606;BME280;8482;54.396;18.590;2024-01-10T18:02:27;102689.50;;;1.30;93.92
48606;BME280;8482;54.396;18.590;2024-01-10T18:04:52;102691.22;;;1.30;93.96
48606;BME280;8482;54.396;18.590;2024-01-10T18:07:18;102697.34;;;1.29;94.04
48606;BME280;8482;54.396;18.590;2024-01-10T18:09:44;102697.34;;;1.29;94.26
48606;BME280;8482;54.396;18.590;2024-01-10T18:12:10;102690.41;;;1.23;94.31
48606;BME280;8482;54.396;18.590;2024-01-10T18:14:36;102696.47;;;1.28;94.00
48606;BME280;8482;54.396;18.590;2024-01-10T18:17:02;102687.78;;;1.26;94.54
48606;BME280;8482;54.396;18.590;2024-01-10T18:19:29;102686.88;;;1.29;94.53
48606;BME280;8482;54.396;18.590;2024-01-10T18:21:55;102688.59;;;1.30;94.24
48606;BME280;8482;54.396;18.590;2024-01-10T18:24:21;102682.53;;;1.29;94.07
48606;BME280;8482;54.396;18.590;2024-01-10T18:26:46;102676.41;;;1.29;93.80
48606;BME280;8482;54.396;18.590;2024-01-10T18:29:12;102665.97;;;1.29;94.03
48606;BME280;8482;54.396;18.590;2024-01-10T18:31:39;102670.34;;;1.28;94.48
48606;BME280;8482;54.396;18.590;2024-01-10T18:34:05;102674.69;;;1.26;93.93
48606;BME280;8482;54.396;18.590;2024-01-10T18:36:31;102656.41;;;1.23;94.67
48606;BME280;8482;54.396;18.590;2024-01-10T18:39:00;102666.88;;;1.26;94.51
48606;BME280;8482;54.396;18.590;2024-01-10T18:41:26;102649.44;;;1.25;94.63
48606;BME280;8482;54.396;18.590;2024-01-10T18:43:53;102641.59;;;1.25;94.76
48606;BME280;8482;54.396;18.590;2024-01-10T18:46:19;102634.63;;;1.26;95.01
48606;BME280;8482;54.396;18.590;2024-01-10T18:48:45;102624.19;;;1.26;94.70
48606;BME280;8482;54.396;18.590;2024-01-10T18:51:11;102625.00;;;1.28;94.80
48606;BME280;8482;54.396;18.590;2024-01-10T18:53:36;102638.97;;;1.28;94.97
48606;BME280;8482;54.396;18.590;2024-01-10T18:56:03;102611.13;;;1.22;94.83
48606;BME280;8482;54.396;18.590;2024-01-10T18:58:29;102619.78;;;1.28;94.92
48606;BME280;8482;54.396;18.590;2024-01-10T19:00:55;102619.81;;;1.26;95.33
48606;BME280;8482;54.396;18.590;2024-01-10T19:03:21;102614.56;;;1.26;94.95
48606;BME280;8482;54.396;18.590;2024-01-10T19:05:47;102606.69;;;1.28;94.85
48606;BME280;8482;54.396;18.590;2024-01-10T19:08:13;102597.09;;;1.30;95.45
48606;BME280;8482;54.396;18.590;2024-01-10T19:10:40;102574.44;;;1.30;95.52
48606;BME280;8482;54.396;18.590;2024-01-10T19:13:06;102574.44;;;1.30;95.05
48606;BME280;8482;54.396;18.590;2024-01-10T19:15:32;102583.16;;;1.32;95.19
48606;BME280;8482;54.396;18.590;2024-01-10T19:17:58;102575.31;;;1.29;94.80
48606;BME280;8482;54.396;18.590;2024-01-10T19:20:23;102574.47;;;1.27;95.15
48606;BME280;8482;54.396;18.590;2024-01-10T19:22:49;102571.81;;;1.29;95.16
48606;BME280;8482;54.396;18.590;2024-01-10T19:25:15;102570.97;;;1.28;95.11
48606;BME280;8482;54.396;18.590;2024-01-10T19:27:41;102570.09;;;1.29;95.32
48606;BME280;8482;54.396;18.590;2024-01-10T19:30:08;102569.25;;;1.27;95.40
48606;BME280;8482;54.396;18.590;2024-01-10T19:32:35;102578.78;;;1.30;95.11
48606;BME280;8482;54.396;18.590;2024-01-10T19:35:04;102584.84;;;1.33;95.38
48606;BME280;8482;54.396;18.590;2024-01-10T19:37:30;102578.78;;;1.33;95.07
48606;BME280;8482;54.396;18.590;2024-01-10T19:39:56;102577.00;;;1.33;95.07
48606;BME280;8482;54.396;18.590;2024-01-10T19:42:23;102583.13;;;1.34;95.26
48606;BME280;8482;54.396;18.590;2024-01-10T19:44:50;102577.09;;;1.27;94.88
48606;BME280;8482;54.396;18.590;2024-01-10T19:47:16;102592.72;;;1.32;95.10
48606;BME280;8482;54.396;18.590;2024-01-10T19:49:42;102593.59;;;1.31;95.41
48606;BME280;8482;54.396;18.590;2024-01-10T19:52:08;102591.88;;;1.31;95.69
48606;BME280;8482;54.396;18.590;2024-01-10T19:54:36;102570.06;;;1.31;95.35
48606;BME280;8482;54.396;18.590;2024-01-10T19:57:02;102570.06;;;1.31;95.94
48606;BME280;8482;54.396;18.590;2024-01-10T19:59:27;102572.69;;;1.31;95.53
48606;BME280;8482;54.396;18.590;2024-01-10T20:01:53;102554.41;;;1.28;95.96
48606;BME280;8482;54.396;18.590;2024-01-10T20:04:19;102564.00;;;1.30;95.84
48606;BME280;8482;54.396;18.590;2024-01-10T20:06:45;102553.50;;;1.32;96.06
48606;BME280;8482;54.396;18.590;2024-01-10T20:09:11;102543.00;;;1.35;96.16
48606;BME280;8482;54.396;18.590;2024-01-10T20:11:37;102543.88;;;1.35;96.23
48606;BME280;8482;54.396;18.590;2024-01-10T20:14:03;102546.47;;;1.35;96.46
48606;BME280;8482;54.396;18.590;2024-01-10T20:16:29;102537.78;;;1.33;95.97
48606;BME280;8482;54.396;18.590;2024-01-10T20:18:55;102539.50;;;1.37;96.45
48606;BME280;8482;54.396;18.590;2024-01-10T20:21:21;102528.19;;;1.37;96.26
48606;BME280;8482;54.396;18.590;2024-01-10T20:23:46;102534.22;;;1.39;96.65
48606;BME280;8482;54.396;18.590;2024-01-10T20:26:15;102529.03;;;1.37;96.62
48606;BME280;8482;54.396;18.590;2024-01-10T20:28:41;102525.50;;;1.42;96.79
48606;BME280;8482;54.396;18.590;2024-01-10T20:31:07;102519.41;;;1.41;96.48
48606;BME280;8482;54.396;18.590;2024-01-10T20:33:33;102515.91;;;1.42;96.65
48606;BME280;8482;54.396;18.590;2024-01-10T20:36:03;102508.94;;;1.41;96.29
48606;BME280;8482;54.396;18.590;2024-01-10T20:38:29;102496.78;;;1.38;96.08
48606;BME280;8482;54.396;18.590;2024-01-10T20:40:55;102496.75;;;1.42;96.32
48606;BME280;8482;54.396;18.590;2024-01-10T20:43:21;102486.34;;;1.37;96.38
48606;BME280;8482;54.396;18.590;2024-01-10T20:45:48;102494.09;;;1.45;96.29
48606;BME280;8482;54.396;18.590;2024-01-10T20:48:14;102485.38;;;1.44;96.31
48606;BME280;8482;54.396;18.590;2024-01-10T20:50:40;102482.75;;;1.44;96.95
48606;BME280;8482;54.396;18.590;2024-01-10T20:53:06;102470.56;;;1.43;96.59
48606;BME280;8482;54.396;18.590;2024-01-10T20:55:31;102478.41;;;1.43;96.44
48606;BME280;8482;54.396;18.590;2024-01-10T20:57:57;102453.19;;;1.37;96.56
48606;BME280;8482;54.396;18.590;2024-01-10T21:00:23;102454.06;;;1.40;96.57
48606;BME280;8482;54.396;18.590;2024-01-10T21:02:51;102454.88;;;1.45;96.83
48606;BME280;8482;54.396;18.590;2024-01-10T21:05:17;102433.06;;;1.44;97.03
48606;BME280;8482;54.396;18.590;2024-01-10T21:07:43;102425.19;;;1.46;96.57
48606;BME280;8482;54.396;18.590;2024-01-10T21:10:09;102418.28;;;1.42;96.58
48606;BME280;8482;54.396;18.590;2024-01-10T21:12:38;102409.56;;;1.41;96.40
48606;BME280;8482;54.396;18.590;2024-01-10T21:15:05;102415.69;;;1.42;96.94
48606;BME280;8482;54.396;18.590;2024-01-10T21:17:31;102406.94;;;1.41;96.38
48606;BME280;8482;54.396;18.590;2024-01-10T21:19:57;102392.13;;;1.42;96.56
48606;BME280;8482;54.396;18.590;2024-01-10T21:22:23;102394.75;;;1.42;96.47
48606;BME280;8482;54.396;18.590;2024-01-10T21:24:49;102400.06;;;1.37;96.27
48606;BME280;8482;54.396;18.590;2024-01-10T21:27:16;102408.72;;;1.41;96.28
48606;BME280;8482;54.396;18.590;2024-01-10T21:29:42;102409.63;;;1.36;96.78
48606;BME280;8482;54.396;18.590;2024-01-10T21:32:08;102414.84;;;1.36;96.62
48606;BME280;8482;54.396;18.590;2024-01-10T21:34:33;102409.63;;;1.38;96.50
48606;BME280;8482;54.396;18.590;2024-01-10T21:37:01;102411.34;;;1.37;96.90
48606;BME280;8482;54.396;18.590;2024-01-10T21:39:27;102415.69;;;1.42;96.67
48606;BME280;8482;54.396;18.590;2024-01-10T21:41:52;102406.06;;;1.42;96.49
48606;BME280;8482;54.396;18.590;2024-01-10T21:44:18;102400.91;;;1.37;96.78
48606;BME280;8482;54.396;18.590;2024-01-10T21:46:47;102402.66;;;1.37;96.11
48606;BME280;8482;54.396;18.590;2024-01-10T21:49:13;102406.94;;;1.43;96.92
48606;BME280;8482;54.396;18.590;2024-01-10T21:51:39;102423.47;;;1.45;96.56
48606;BME280;8482;54.396;18.590;2024-01-10T21:54:05;102406.91;;;1.44;96.30
48606;BME280;8482;54.396;18.590;2024-01-10T21:56:31;102400.00;;;1.38;96.11
48606;BME280;8482;54.396;18.590;2024-01-10T21:58:56;102438.28;;;1.44;96.27
48606;BME280;8482;54.396;18.590;2024-01-10T22:01:23;102430.44;;;1.44;96.20
48606;BME280;8482;54.396;18.590;2024-01-10T22:03:49;102413.84;;;1.48;96.29
48606;BME280;8482;54.396;18.590;2024-01-10T22:06:15;102418.19;;;1.49;96.28
48606;BME280;8482;54.396;18.590;2024-01-10T22:08:41;102403.38;;;1.48;96.18
48606;BME280;8482;54.396;18.590;2024-01-10T22:11:07;102385.06;;;1.48;96.21
48606;BME280;8482;54.396;18.590;2024-01-10T22:13:33;102372.00;;;1.47;96.21
48606;BME280;8482;54.396;18.590;2024-01-10T22:15:59;102373.75;;;1.46;95.90
48606;BME280;8482;54.396;18.590;2024-01-10T22:18:25;102352.84;;;1.46;96.20
48606;BME280;8482;54.396;18.590;2024-01-10T22:20:51;102353.72;;;1.45;96.32
48606;BME280;8482;54.396;18.590;2024-01-10T22:23:16;102373.75;;;1.46;96.00
48606;BME280;8482;54.396;18.590;2024-01-10T22:25:42;102360.75;;;1.42;96.31
48606;BME280;8482;54.396;18.590;2024-01-10T22:28:08;102360.75;;;1.40;96.54
48606;BME280;8482;54.396;18.590;2024-01-10T22:30:34;102352.84;;;1.46;96.40
48606;BME280;8482;54.396;18.590;2024-01-10T22:33:00;102338.03;;;1.45;96.42
48606;BME280;8482;54.396;18.590;2024-01-10T22:35:25;102363.25;;;1.48;96.15
48606;BME280;8482;54.396;18.590;2024-01-10T22:37:51;102366.75;;;1.47;96.89
48606;BME280;8482;54.396;18.590;2024-01-10T22:40:21;102357.16;;;1.49;96.84
48606;BME280;8482;54.396;18.590;2024-01-10T22:42:47;102335.38;;;1.48;96.65
